Time;durP1;ratioP1;P1;durP2;ratioP2;P2;SDS_P1;SDS_P2;PMS_P1;PMS_P2;Temp;Humidity;BMP_temperature;BMP_pressure;BME280_temperature;BME280_humidity;BME280_pressure;Samples;Min_cycle;Max_cycle;Signal;HPM_P1;HPM_P2
2021/04/06 00:00:43;;;;;;;12.95;7.22;;;;;;;4.77;52.80;100046.20;1745124;82;25647;-58
2021/04/06 00:03:17;;;;;;;13.83;7.20;;;;;;;4.74;52.94;100037.59;1723991;81;26659;-58
2021/04/06 00:05:52;;;;;;;15.65;6.30;;;;;;;4.71;53.39;100034.69;1775049;80;25564;-58
2021/04/06 00:08:20;;;;;;;12.78;7.80;;;;;;;4.65;54.47;100036.49;1774913;80;27534;-58
2021/04/06 00:10:52;;;;;;;10.80;6.67;;;;;;;4.56;54.04;100028.70;1735435;82;25691;-58
2021/04/06 00:13:24;;;;;;;11.63;7.05;;;;;;;4.53;54.09;100030.25;1784317;80;25615;-58
2021/04/06 00:15:54;;;;;;;14.15;6.92;;;;;;;4.48;54.91;100028.43;1833487;78;25716;-58
2021/04/06 00:18:24;;;;;;;12.50;6.83;;;;;;;4.38;54.76;100031.78;1803177;78;25633;-58
2021/04/06 00:20:57;;;;;;;9.50;6.22;;;;;;;4.35;55.76;100021.34;1734497;81;27529;-58
2021/04/06 00:23:27;;;;;;;12.03;7.15;;;;;;;4.28;56.09;100021.44;1835004;78;25710;-58
2021/04/06 00:25:56;;;;;;;10.93;7.00;;;;;;;4.23;55.46;100013.80;1827317;78;25686;-58
2021/04/06 00:28:29;;;;;;;8.25;6.17;;;;;;;4.20;55.45;100014.51;1818810;78;25845;-58
2021/04/06 00:30:57;;;;;;;13.83;7.33;;;;;;;4.16;55.86;100004.57;1818727;78;25677;-58
2021/04/06 00:33:33;;;;;;;13.93;6.37;;;;;;;4.14;55.67;100005.66;1787224;78;26936;-58
2021/04/06 00:36:04;;;;;;;9.65;6.45;;;;;;;4.11;56.14;100008.53;1818710;78;25736;-57
2021/04/06 00:38:41;;;;;;;9.93;6.67;;;;;;;4.06;56.48;100000.89;1818784;78;25660;-58
2021/04/06 00:41:13;;;;;;;10.45;6.97;;;;;;;3.99;56.35;100001.81;1805130;78;26155;-58
2021/04/06 00:43:44;;;;;;;12.40;6.28;;;;;;;3.95;56.55;99995.50;1737894;81;25681;-58
2021/04/06 00:46:16;;;;;;;9.50;7.10;;;;;;;3.91;56.43;99997.07;1803802;78;27539;-58
2021/04/06 00:48:49;;;;;;;8.25;6.05;;;;;;;3.90;56.89;99993.17;1737843;82;25675;-58
2021/04/06 00:51:20;;;;;;;13.50;6.78;;;;;;;3.92;57.16;99991.25;1804143;78;25716;-58
2021/04/06 00:54:04;;;;;;;14.83;7.80;;;;;;;3.92;57.13;99976.63;1737596;82;26267;-59
2021/04/06 00:56:36;;;;;;;12.07;6.30;;;;;;;3.96;57.26;99978.57;1803800;78;26352;-58
2021/04/06 00:59:13;;;;;;;10.63;6.10;;;;;;;4.00;57.92;99980.06;1803754;78;28465;-58
2021/04/06 01:01:55;;;;;;;11.75;7.20;;;;;;;4.00;57.98;99975.57;1744965;82;26089;-58
2021/04/06 01:04:27;;;;;;;10.63;6.45;;;;;;;4.04;58.14;99979.72;1776479;80;25800;-58
2021/04/06 01:07:16;;;;;;;10.55;5.85;;;;;;;4.06;58.50;99972.48;1776820;80;25667;-58
2021/04/06 01:09:48;;;;;;;12.43;6.03;;;;;;;4.13;58.50;99970.19;1776866;80;26070;-58
2021/04/06 01:12:25;;;;;;;9.18;5.28;;;;;;;4.17;58.70;99969.00;1776767;80;27570;-58
2021/04/06 01:14:55;;;;;;;9.83;5.92;;;;;;;4.21;58.46;99973.61;1776697;80;25735;-58
2021/04/06 01:17:28;;;;;;;11.12;6.12;;;;;;;4.24;58.40;99965.41;1776784;80;25667;-58
2021/04/06 01:20:10;;;;;;;12.45;6.00;;;;;;;4.30;58.19;99968.09;1776805;80;25904;-58
2021/04/06 01:22:39;;;;;;;11.73;7.10;;;;;;;4.33;57.90;99970.04;1776788;80;25485;-58
2021/04/06 01:25:19;;;;;;;12.40;6.90;;;;;;;4.35;57.65;99975.24;1776887;80;27614;-58
2021/04/06 01:27:49;;;;;;;16.00;6.55;;;;;;;4.29;57.45;99978.37;1737025;82;26285;-58
2021/04/06 01:30:22;;;;;;;12.28;6.15;;;;;;;4.18;56.94;99979.16;1818424;78;25721;-58
2021/04/06 01:32:51;;;;;;;8.80;6.33;;;;;;;4.10;56.88;99982.88;1826698;78;25875;-58
2021/04/06 01:35:20;;;;;;;12.70;7.60;;;;;;;4.03;56.89;99978.02;1746069;82;25710;-58
2021/04/06 01:37:47;;;;;;;13.98;7.12;;;;;;;3.96;56.82;99984.77;1826851;78;28417;-58
2021/04/06 01:40:17;;;;;;;11.03;7.10;;;;;;;3.91;56.72;99994.88;1811762;78;25639;-58
2021/04/06 01:42:45;;;;;;;15.72;8.65;;;;;;;3.86;56.61;99999.70;1803751;79;25439;-58
2021/04/06 01:45:16;;;;;;;22.27;11.85;;;;;;;3.78;56.59;100000.73;1737770;82;25755;-58
2021/04/06 01:47:44;;;;;;;18.42;10.65;;;;;;;3.70;56.67;99995.50;1803935;79;25752;-58
2021/04/06 01:50:15;;;;;;;19.55;10.05;;;;;;;3.64;56.74;99993.27;1737927;82;27536;-58
2021/04/06 01:52:51;;;;;;;21.85;9.50;;;;;;;3.61;56.93;99994.84;1737798;82;25623;-58
2021/04/06 01:55:21;;;;;;;14.63;8.23;;;;;;;3.60;57.25;99999.28;1802933;78;25600;-58
2021/04/06 01:57:51;;;;;;;14.15;7.33;;;;;;;3.57;57.39;99995.53;1730256;82;25947;-58
2021/04/06 02:00:32;;;;;;;10.75;7.47;;;;;;;3.52;57.57;99988.84;1799088;79;25696;-58
2021/04/06 02:02:51;;;;;;;12.60;7.85;;;;;;;3.45;57.74;99981.78;1754675;81;28592;-56
2021/04/06 02:05:20;;;;;;;15.35;8.03;;;;;;;3.36;58.41;99979.28;1725839;83;25666;-58
2021/04/06 02:07:51;;;;;;;13.43;8.38;;;;;;;3.28;58.61;99977.19;1714076;82;26424;-58
2021/04/06 02:10:19;;;;;;;14.55;8.03;;;;;;;3.23;59.40;99979.80;1793961;79;25742;-58
2021/04/06 02:12:47;;;;;;;11.20;7.33;;;;;;;3.23;59.48;99976.65;1793960;79;25470;-58
2021/04/06 02:15:16;;;;;;;12.40;7.20;;;;;;;3.28;59.98;99976.32;1799601;78;27536;-58
2021/04/06 02:17:53;;;;;;;13.93;7.22;;;;;;;3.33;60.00;99966.23;1755918;81;25753;-58
2021/04/06 02:20:24;;;;;;;11.93;6.55;;;;;;;3.39;60.53;99963.13;1765464;81;25610;-58
2021/04/06 02:23:01;;;;;;;11.33;6.55;;;;;;;3.46;60.57;99966.20;1765470;81;26492;-58
2021/04/06 02:25:30;;;;;;;7.45;5.78;;;;;;;3.53;60.78;99963.46;1755905;81;26083;-58
2021/04/06 02:28:00;;;;;;;12.43;5.62;;;;;;;3.58;60.70;99965.79;1765508;81;27462;-58
2021/04/06 02:30:31;;;;;;;13.65;6.15;;;;;;;3.65;60.90;99960.39;1826192;78;25678;-58
2021/04/06 02:33:01;;;;;;;15.38;5.90;;;;;;;3.68;60.89;99956.19;1826418;78;25567;-58
2021/04/06 02:35:29;;;;;;;7.50;5.35;;;;;;;3.68;61.39;99957.52;1756058;81;25768;-58
2021/04/06 02:37:57;;;;;;;11.93;6.28;;;;;;;3.67;61.21;99957.14;1765519;81;25709;-58
2021/04/06 02:40:26;;;;;;;10.50;5.90;;;;;;;3.70;61.17;99950.74;1725438;81;27514;-58
2021/04/06 02:42:58;;;;;;;10.23;5.62;;;;;;;3.69;61.19;99947.25;1735443;82;25755;-58
2021/04/06 02:45:30;;;;;;;10.10;6.33;;;;;;;3.67;61.20;99935.86;1735535;82;25624;-58
2021/04/06 02:48:05;;;;;;;8.30;5.92;;;;;;;3.65;61.13;99931.13;1735634;82;26588;-58
2021/04/06 02:50:31;;;;;;;12.10;6.40;;;;;;;3.55;61.86;99928.30;1735383;82;25760;-57
2021/04/06 02:53:06;;;;;;;15.38;7.15;;;;;;;3.47;61.37;99929.34;1735580;82;27609;-58
2021/04/06 02:55:36;;;;;;;12.23;6.47;;;;;;;3.44;61.13;99928.23;1739197;82;25757;-58
2021/04/06 02:58:16;;;;;;;8.90;5.87;;;;;;;3.38;61.31;99924.20;1810262;79;25674;-58
2021/04/06 03:00:45;;;;;;;11.20;6.28;;;;;;;3.32;61.25;99921.16;1789701;78;25751;-58
2021/04/06 03:03:25;;;;;;;8.28;6.03;;;;;;;3.26;61.41;99928.59;1735524;81;26093;-58
2021/04/06 03:06:12;;;;;;;11.75;6.65;;;;;;;3.22;61.33;99934.23;1735498;82;27543;-58
2021/04/06 03:08:41;;;;;;;12.45;6.15;;;;;;;3.17;61.24;99933.23;1736473;80;25957;-59
2021/04/06 03:11:12;;;;;;;9.55;7.08;;;;;;;3.11;61.45;99927.88;1832148;78;25621;-58
2021/04/06 03:13:44;;;;;;;8.23;6.30;;;;;;;3.10;62.14;99941.28;1832248;78;25461;-59
2021/04/06 03:16:13;;;;;;;17.30;6.22;;;;;;;3.08;62.17;99951.16;1755042;81;25766;-59
2021/04/06 03:18:42;;;;;;;9.78;5.37;;;;;;;3.07;62.41;99958.30;1765450;81;28470;-59
2021/04/06 03:21:12;;;;;;;9.78;6.35;;;;;;;3.04;62.48;99948.37;1765236;81;25714;-58
2021/04/06 03:23:41;;;;;;;9.35;6.08;;;;;;;3.03;62.69;99961.28;1826393;78;25700;-59
2021/04/06 03:26:10;;;;;;;6.50;4.97;;;;;;;2.98;63.11;99958.94;1755978;81;25769;-58
2021/04/06 03:28:40;;;;;;;12.63;5.40;;;;;;;2.91;63.37;99954.53;1765480;81;25674;-58
2021/04/06 03:31:17;;;;;;;8.33;5.70;;;;;;;2.89;63.13;99956.44;1826416;78;27534;-57
2021/04/06 03:33:48;;;;;;;8.83;5.20;;;;;;;2.92;64.30;99961.55;1826151;78;26149;-58
2021/04/06 03:36:29;;;;;;;8.38;5.33;;;;;;;2.95;63.55;99965.79;1826365;78;25657;-58
2021/04/06 03:39:06;;;;;;;8.93;4.92;;;;;;;3.00;63.51;99959.69;1825296;78;25658;-57
2021/04/06 03:41:36;;;;;;;8.20;4.90;;;;;;;3.03;63.55;99963.44;1727339;82;26218;-58
2021/04/06 03:44:11;;;;;;;7.78;5.75;;;;;;;3.09;63.92;99964.83;1744106;82;27536;-58
2021/04/06 03:46:41;;;;;;;11.80;6.65;;;;;;;3.11;63.52;99969.06;1792604;80;25454;-58
2021/04/06 03:49:18;;;;;;;18.55;7.33;;;;;;;3.08;63.23;99965.31;1727354;82;25659;-58
2021/04/06 03:51:59;;;;;;;24.90;9.83;;;;;;;3.04;63.63;99962.48;1743595;82;25695;-58
2021/04/06 03:54:48;;;;;;;16.17;9.20;;;;;;;3.01;63.21;99968.01;1808639;78;26355;-57
2021/04/06 03:57:38;;;;;;;24.32;10.03;;;;;;;2.98;63.31;99962.44;1705983;83;27656;-58
2021/04/06 04:00:11;;;;;;;23.47;9.53;;;;;;;2.97;63.21;99961.22;1752517;79;26033;-58
2021/04/06 04:02:40;;;;;;;21.12;10.05;;;;;;;2.94;63.29;99951.67;1800364;77;33086;-58
2021/04/06 04:05:11;;;;;;;16.65;9.58;;;;;;;2.86;63.87;99955.34;1799773;79;25586;-58
2021/04/06 04:07:39;;;;;;;25.00;10.00;;;;;;;2.73;64.65;99950.03;1799725;79;25707;-58
2021/04/06 04:10:09;;;;;;;19.75;9.33;;;;;;;2.67;64.73;99950.44;1783696;79;27519;-58
2021/04/06 04:12:38;;;;;;;17.12;9.23;;;;;;;2.60;64.96;99950.00;1733123;82;25699;-58
2021/04/06 04:15:09;;;;;;;17.55;9.13;;;;;;;2.54;65.84;99946.94;1750302;81;25659;-58
2021/04/06 04:17:38;;;;;;;16.00;8.63;;;;;;;2.55;65.21;99949.97;1734550;80;25693;-58
2021/04/06 04:20:14;;;;;;;18.40;9.20;;;;;;;2.59;65.27;99949.66;1782235;79;25626;-58
2021/04/06 04:22:42;;;;;;;19.85;8.50;;;;;;;2.69;65.57;99943.71;1778103;80;27530;-58
2021/04/06 04:25:12;;;;;;;37.30;12.15;;;;;;;2.79;65.52;99939.44;1780798;79;25686;-58
2021/04/06 04:27:41;;;;;;;23.62;11.90;;;;;;;2.89;65.90;99940.98;1794419;79;25547;-58
2021/04/06 04:30:13;;;;;;;32.53;12.80;;;;;;;2.98;65.42;99933.70;1793882;79;25886;-58
2021/04/06 04:32:42;;;;;;;29.82;14.05;;;;;;;3.05;65.44;99934.96;1794358;79;25506;-58
2021/04/06 04:35:13;;;;;;;33.60;14.05;;;;;;;3.13;65.55;99932.61;1794329;79;27525;-58
2021/04/06 04:37:41;;;;;;;30.70;16.02;;;;;;;3.18;67.51;99929.62;1779007;79;25707;-57
2021/04/06 04:40:11;;;;;;;45.55;17.23;;;;;;;3.17;66.38;99925.76;1792139;78;25648;-58
2021/04/06 04:42:39;;;;;;;39.35;16.15;;;;;;;3.19;66.21;99926.47;1806032;79;25782;-58
2021/04/06 04:45:10;;;;;;;48.28;15.18;;;;;;;3.27;66.20;99925.47;1803145;79;26485;-58
2021/04/06 04:47:38;;;;;;;31.12;13.85;;;;;;;3.35;66.07;99920.45;1794354;79;27575;-58
2021/04/06 04:50:09;;;;;;;27.20;13.60;;;;;;;3.39;65.80;99918.42;1794044;79;25938;-58
2021/04/06 04:52:37;;;;;;;19.25;13.22;;;;;;;3.40;65.74;99921.45;1794320;79;25469;-58
2021/04/06 04:55:08;;;;;;;26.55;12.85;;;;;;;3.37;66.25;99918.50;1798364;79;25616;-58
2021/04/06 04:57:38;;;;;;;31.25;14.47;;;;;;;3.34;66.01;99918.75;1810689;79;25646;-58
2021/04/06 05:00:08;;;;;;;25.85;14.00;;;;;;;3.37;65.98;99924.32;1809583;78;27541;-58
2021/04/06 05:02:36;;;;;;;28.17;14.90;;;;;;;3.40;65.99;99928.09;1812174;79;26160;-58
2021/04/06 05:05:08;;;;;;;24.82;14.33;;;;;;;3.44;66.08;99930.89;1740175;82;25681;-58
2021/04/06 05:07:42;;;;;;;28.62;13.45;;;;;;;3.47;66.24;99925.82;1806354;78;25550;-58
2021/04/06 05:10:14;;;;;;;28.65;15.50;;;;;;;3.49;66.24;99927.43;1806482;79;26120;-58
2021/04/06 05:12:48;;;;;;;26.60;15.65;;;;;;;3.53;66.15;99921.41;1802511;77;27595;-58
2021/04/06 05:15:17;;;;;;;28.15;12.65;;;;;;;3.57;66.65;99917.08;1803470;79;35323;-58
2021/04/06 05:17:45;;;;;;;20.77;13.32;;;;;;;3.61;66.27;99909.72;1732228;82;25778;-58
2021/04/06 05:20:16;;;;;;;28.80;13.30;;;;;;;3.65;66.54;99916.99;1783282;78;26524;-57
2021/04/06 05:22:43;;;;;;;24.63;15.05;;;;;;;3.68;67.24;99930.91;1802409;78;25633;-57
2021/04/06 05:25:12;;;;;;;22.87;13.90;;;;;;;3.71;67.11;99925.84;1801525;79;27533;-57
2021/04/06 05:27:40;;;;;;;18.20;11.68;;;;;;;3.76;66.66;99924.55;1806087;78;26237;-58
2021/04/06 05:30:10;;;;;;;24.82;14.10;;;;;;;3.83;66.67;99926.74;1731237;81;25728;-58
2021/04/06 05:32:38;;;;;;;21.62;12.70;;;;;;;3.87;67.25;99923.74;1805021;78;25719;-58
2021/04/06 05:35:07;;;;;;;24.55;12.60;;;;;;;3.91;67.48;99925.23;1805228;79;25712;-57
2021/04/06 05:37:35;;;;;;;20.37;12.40;;;;;;;3.99;67.32;99925.97;1798815;79;28396;-58
2021/04/06 05:40:06;;;;;;;28.65;13.43;;;;;;;4.03;67.37;99920.80;1807734;78;25769;-58
2021/04/06 05:42:34;;;;;;;23.42;13.30;;;;;;;4.16;67.44;99924.71;1736538;82;25705;-58
2021/04/06 05:45:06;;;;;;;21.50;12.73;;;;;;;4.27;67.65;99926.55;1751853;78;26709;-57
2021/04/06 05:47:47;;;;;;;18.23;11.60;;;;;;;4.40;67.34;99927.80;1738953;82;25728;-58
2021/04/06 05:50:15;;;;;;;24.05;12.03;;;;;;;4.53;68.44;99925.03;1782219;79;28445;-58
2021/04/06 05:52:44;;;;;;;27.55;12.10;;;;;;;4.65;68.51;99918.77;1745552;82;25779;-58
2021/04/06 05:55:13;;;;;;;23.62;11.85;;;;;;;4.72;67.84;99920.95;1797675;78;25692;-57
2021/04/06 05:57:41;;;;;;;26.27;12.13;;;;;;;4.80;67.75;99918.06;1790265;79;25737;-57
2021/04/06 06:00:11;;;;;;;18.35;12.40;;;;;;;4.88;67.67;99924.61;1802910;78;25809;-57
2021/04/06 06:02:40;;;;;;;34.05;13.22;;;;;;;4.95;68.14;99922.69;1803217;78;27509;-58
2021/04/06 06:05:10;;;;;;;17.80;12.18;;;;;;;5.04;67.72;99927.75;1792825;78;25682;-57
2021/04/06 06:07:38;;;;;;;24.65;11.63;;;;;;;5.15;67.44;99922.43;1808048;79;25757;-57
2021/04/06 06:10:33;;;;;;;23.92;13.20;;;;;;;5.27;67.04;99929.92;1812787;79;25704;-58
2021/04/06 06:13:24;;;;;;;20.40;12.63;;;;;;;5.36;66.92;99928.83;1801416;79;25949;-58
2021/04/06 06:16:15;;;;;;;30.32;13.78;;;;;;;5.45;66.63;99929.42;1795071;79;27516;-58
2021/04/06 06:18:58;;;;;;;20.68;12.98;;;;;;;5.52;65.93;99932.45;1780721;80;27567;-57
2021/04/06 06:21:49;;;;;;;26.07;13.05;;;;;;;5.60;65.87;99932.67;1783321;79;25745;-57
2021/04/06 06:24:33;;;;;;;17.60;12.75;;;;;;;5.67;65.33;99934.36;1743172;78;27842;-57
2021/04/06 06:27:01;;;;;;;18.95;12.18;;;;;;;5.73;64.71;99936.52;1799705;79;25862;-57
2021/04/06 06:29:34;;;;;;;21.07;12.93;;;;;;;5.78;64.55;99943.17;1801904;78;28286;-56
2021/04/06 06:32:02;;;;;;;20.60;13.05;;;;;;;5.85;64.27;99950.20;1784299;79;26179;-57
2021/04/06 06:34:39;;;;;;;17.60;12.18;;;;;;;5.90;63.90;99951.16;1796157;78;26372;-57
2021/04/06 06:37:26;;;;;;;21.73;11.97;;;;;;;5.96;63.67;99946.64;1802223;78;25674;-57
2021/04/06 06:40:00;;;;;;;26.40;12.15;;;;;;;6.04;63.61;99950.05;1803425;78;25651;-57
2021/04/06 06:42:34;;;;;;;25.95;13.35;;;;;;;6.12;63.12;99946.25;1798236;79;27521;-58
2021/04/06 06:45:03;;;;;;;;;;;;;;;6.17;62.86;99940.53;1804091;79;25510;-58
2021/04/06 06:47:32;;;;;;;21.73;12.23;;;;;;;6.22;62.69;99943.65;1806892;79;25638;-58
2021/04/06 06:50:11;;;;;;;36.88;13.38;;;;;;;6.28;62.54;99951.14;1742617;82;25621;-58
2021/04/06 06:52:39;;;;;;;33.83;17.57;;;;;;;6.36;62.69;99940.69;1806373;79;25772;-58
2021/04/06 06:55:26;;;;;;;33.28;14.47;;;;;;;6.48;62.37;99943.27;1730947;81;28224;-57
2021/04/06 06:58:05;;;;;;;33.60;12.13;;;;;;;6.56;62.22;99938.98;1752609;80;25692;-58
2021/04/06 07:00:34;;;;;;;22.52;14.05;;;;;;;6.67;62.11;99935.89;1717388;82;26005;-58
2021/04/06 07:03:15;;;;;;;21.45;12.25;;;;;;;6.81;62.22;99936.05;1758928;80;25695;-57
2021/04/06 07:05:43;;;;;;;27.80;12.07;;;;;;;6.92;61.59;99935.10;1733351;81;25671;-57
2021/04/06 07:08:11;;;;;;;22.30;11.80;;;;;;;7.03;61.50;99932.35;1737444;81;27529;-58
2021/04/06 07:10:42;;;;;;;29.25;11.38;;;;;;;7.19;61.45;99920.66;1764387;80;25718;-58
2021/04/06 07:13:22;;;;;;;21.45;12.07;;;;;;;7.31;60.59;99918.72;1750886;81;25503;-57
2021/04/06 07:15:51;;;;;;;23.38;10.75;;;;;;;7.41;60.42;99916.06;1746322;81;26456;-58
2021/04/06 07:18:25;;;;;;;29.45;13.43;;;;;;;7.52;60.08;99909.27;1704651;84;25718;-56
2021/04/06 07:21:03;;;;;;;24.47;12.13;;;;;;;7.64;60.11;99909.15;1715281;82;27524;-58
2021/04/06 07:23:59;;;;;;;20.25;12.63;;;;;;;7.76;59.83;99912.55;1749993;81;25501;-58
2021/04/06 07:26:29;;;;;;;23.87;12.15;;;;;;;7.87;58.56;99900.38;1752663;81;25694;-58
2021/04/06 07:28:58;;;;;;;24.43;12.13;;;;;;;7.98;57.94;99902.89;1730693;81;25736;-59
2021/04/06 07:31:27;;;;;;;20.92;12.03;;;;;;;8.07;57.92;99894.52;1736243;81;25755;-58
2021/04/06 07:33:57;;;;;;;21.45;11.80;;;;;;;8.14;57.07;99894.80;1734732;81;27619;-58
2021/04/06 07:36:27;;;;;;;18.82;11.88;;;;;;;8.19;56.73;99893.86;1706866;82;25796;-58
2021/04/06 07:39:03;;;;;;;23.05;12.47;;;;;;;8.28;56.90;99893.01;1727709;82;25737;-58
2021/04/06 07:41:34;;;;;;;16.50;12.10;;;;;;;8.38;56.67;99885.45;1725592;82;25670;-58
2021/04/06 07:44:05;;;;;;;20.15;13.20;;;;;;;8.48;56.51;99888.13;1725273;82;25624;-58
2021/04/06 07:46:39;;;;;;;18.70;11.43;;;;;;;8.60;56.34;99895.03;1725989;82;27711;-58
2021/04/06 07:49:20;;;;;;;29.27;11.83;;;;;;;8.72;56.38;99892.54;1727052;83;25619;-59
2021/04/06 07:51:51;;;;;;;21.17;10.53;;;;;;;8.85;55.84;99892.69;1725791;82;25715;-58
2021/04/06 07:54:33;;;;;;;23.90;11.12;;;;;;;8.95;52.89;99893.50;1725656;82;25559;-59
2021/04/06 07:57:04;;;;;;;17.48;10.40;;;;;;;9.05;53.13;99894.31;1722751;83;25719;-59
2021/04/06 07:59:38;;;;;;;26.93;10.45;;;;;;;9.16;51.49;99885.73;1735960;80;27605;-58
2021/04/06 08:02:11;;;;;;;25.02;12.33;;;;;;;9.24;51.85;99885.31;1749250;81;25766;-58
2021/04/06 08:04:57;;;;;;;16.73;9.10;;;;;;;9.34;51.22;99879.05;1723497;82;25714;-58
2021/04/06 08:07:34;;;;;;;21.20;10.05;;;;;;;9.42;50.65;99878.30;1734479;82;26569;-57
2021/04/06 08:10:13;;;;;;;14.47;9.53;;;;;;;9.54;51.15;99877.94;1727096;80;26862;-57
2021/04/06 08:12:41;;;;;;;22.07;9.93;;;;;;;9.70;50.46;99871.04;1727975;82;28445;-57
2021/04/06 08:15:16;;;;;;;20.95;10.53;;;;;;;9.86;49.46;99871.19;1732441;80;25718;-56
2021/04/06 08:17:53;;;;;;;18.48;9.55;;;;;;;9.97;48.90;99874.64;1730932;80;25573;-57
2021/04/06 08:20:35;;;;;;;21.48;9.98;;;;;;;10.09;48.10;99875.25;1728289;82;25601;-57
2021/04/06 08:23:08;;;;;;;15.15;9.95;;;;;;;10.17;48.05;99864.08;1743251;82;25710;-58
2021/04/06 08:25:39;;;;;;;15.78;8.93;;;;;;;10.31;48.14;99859.98;1731404;82;26965;-57
2021/04/06 08:28:33;;;;;;;23.47;10.82;;;;;;;10.45;47.81;99853.22;1731143;81;25802;-58
2021/04/06 08:31:26;;;;;;;17.50;10.65;;;;;;;10.58;47.73;99851.45;1726642;82;25945;-57
2021/04/06 08:33:57;;;;;;;16.65;11.08;;;;;;;10.80;47.56;99844.68;1701957;82;25637;-57
2021/04/06 08:36:28;;;;;;;28.05;11.60;;;;;;;11.00;47.50;99835.02;1714464;82;25718;-57
2021/04/06 08:38:57;;;;;;;16.30;10.65;;;;;;;11.19;47.43;99836.59;1723277;82;28371;-57
2021/04/06 08:41:30;;;;;;;22.90;11.73;;;;;;;11.41;46.86;99837.83;1732261;82;26145;-57
2021/04/06 08:44:04;;;;;;;22.10;10.60;;;;;;;11.60;46.04;99837.19;1719849;82;25741;-57
2021/04/06 08:46:42;;;;;;;19.97;11.07;;;;;;;11.75;45.88;99834.17;1727961;82;25560;-58
2021/04/06 08:49:23;;;;;;;19.20;9.28;;;;;;;11.93;46.48;99826.44;1723270;82;25686;-57
2021/04/06 08:51:58;;;;;;;20.55;10.68;;;;;;;12.15;45.20;99820.90;1716710;82;27767;-57
2021/04/06 08:54:32;;;;;;;21.37;9.35;;;;;;;12.35;44.86;99821.89;1716922;82;26298;-57
2021/04/06 08:57:07;;;;;;;43.48;21.33;;;;;;;12.59;44.29;99829.61;1734272;82;25643;-58
2021/04/06 08:59:42;;;;;;;18.77;10.85;;;;;;;12.77;43.48;99819.44;1727246;82;25698;-57
2021/04/06 09:02:16;;;;;;;15.13;10.23;;;;;;;12.99;43.56;99822.38;1723125;82;26113;-57
2021/04/06 09:04:50;;;;;;;19.00;10.28;;;;;;;13.24;42.75;99815.01;1725268;81;27529;-58
2021/04/06 09:07:31;;;;;;;25.97;10.75;;;;;;;13.50;42.48;99814.36;1729845;82;26188;-57
2021/04/06 09:10:13;;;;;;;22.80;13.18;;;;;;;13.80;43.21;99814.50;1727406;81;25813;-58
2021/04/06 09:12:43;;;;;;;22.40;10.70;;;;;;;14.11;42.16;99804.11;1725062;81;26859;-56
2021/04/06 09:15:15;;;;;;;13.22;9.30;;;;;;;14.43;41.32;99804.80;1755081;79;25700;-57
2021/04/06 09:17:44;;;;;;;14.03;8.27;;;;;;;14.66;40.46;99799.31;1771930;79;27520;-57
2021/04/06 09:20:17;;;;;;;13.83;8.60;;;;;;;14.94;40.10;99796.79;1735696;80;25687;-57
2021/04/06 09:22:50;;;;;;;13.55;7.40;;;;;;;15.27;39.15;99792.31;1764975;79;25708;-57
2021/04/06 09:25:28;;;;;;;16.62;6.95;;;;;;;15.68;37.16;99791.36;1784956;79;25702;-57
2021/04/06 09:28:01;;;;;;;9.68;5.97;;;;;;;16.02;37.03;99787.95;1784104;79;25694;-57
2021/04/06 09:30:40;;;;;;;10.50;6.60;;;;;;;16.53;36.74;99782.78;1777047;80;27534;-56
2021/04/06 09:33:12;;;;;;;12.88;6.35;;;;;;;17.19;36.27;99777.88;1770563;80;26665;-56
2021/04/06 09:35:43;;;;;;;16.70;6.72;;;;;;;18.01;34.73;99772.37;1777900;80;26354;-56
2021/04/06 09:38:14;;;;;;;10.25;6.05;;;;;;;18.70;33.87;99772.88;1762147;79;26685;-56
2021/04/06 09:40:43;;;;;;;12.20;5.95;;;;;;;19.35;31.67;99755.64;1777277;80;26100;-57
2021/04/06 09:43:11;;;;;;;17.65;5.47;;;;;;;19.55;29.70;99761.50;1759451;80;27537;-58
2021/04/06 09:45:39;;;;;;;9.93;5.22;;;;;;;19.62;29.77;99763.66;1754555;79;26155;-56
2021/04/06 09:48:13;;;;;;;11.50;5.28;;;;;;;20.18;29.45;99762.50;1757908;79;25637;-57
2021/04/06 09:50:59;;;;;;;10.13;4.55;;;;;;;20.65;29.71;99755.19;1775236;79;25710;-57
2021/04/06 09:53:37;;;;;;;17.25;5.67;;;;;;;21.40;27.97;99752.67;1820950;78;25297;-56
2021/04/06 09:56:07;;;;;;;8.48;4.72;;;;;;;21.73;26.02;99743.69;1766417;79;25458;-56
2021/04/06 09:58:35;;;;;;;19.90;6.12;;;;;;;22.01;26.22;99748.48;1730668;82;28429;-56
2021/04/06 10:01:17;;;;;;;10.95;5.37;;;;;;;22.27;25.39;99748.25;1719265;82;25795;-56
2021/04/06 10:03:49;;;;;;;9.80;5.97;;;;;;;22.29;26.21;99744.72;1738527;80;25753;-56
2021/04/06 10:06:17;;;;;;;15.08;7.33;;;;;;;22.71;25.88;99743.22;1735281;81;25785;-57
2021/04/06 10:08:45;;;;;;;18.70;6.80;;;;;;;23.11;26.78;99744.29;1738263;80;26586;-57
2021/04/06 10:11:23;;;;;;;9.60;5.28;;;;;;;23.84;26.35;99729.42;1734844;81;27531;-57
2021/04/06 10:13:52;;;;;;;14.60;4.05;;;;;;;24.36;24.52;99736.53;1751159;81;26150;-56
2021/04/06 10:16:20;;;;;;;7.30;4.50;;;;;;;24.98;24.88;99724.97;1770715;80;25714;-57
2021/04/06 10:18:49;;;;;;;11.00;4.65;;;;;;;25.62;22.10;99719.30;1740243;80;25619;-57
2021/04/06 10:21:22;;;;;;;10.95;3.98;;;;;;;25.94;21.87;99707.98;1734682;81;26082;-57
2021/04/06 10:23:59;;;;;;;5.53;3.42;;;;;;;26.31;20.98;99709.09;1743138;80;28453;-57
2021/04/06 10:26:29;;;;;;;10.60;3.83;;;;;;;26.71;21.25;99705.70;1738678;81;26096;-57
2021/04/06 10:29:07;;;;;;;9.53;3.30;;;;;;;27.19;18.87;99710.25;1740246;81;25632;-57
2021/04/06 10:31:53;;;;;;;7.25;2.77;;;;;;;27.13;17.46;99703.89;1728523;82;25942;-58
2021/04/06 10:34:22;;;;;;;15.00;3.52;;;;;;;27.10;17.60;99704.98;1730442;82;25603;-57
2021/04/06 10:37:04;;;;;;;9.93;3.50;;;;;;;27.52;17.16;99708.14;1744349;81;27599;-58
2021/04/06 10:39:36;;;;;;;7.40;3.10;;;;;;;27.75;15.94;99697.63;1719642;81;26195;-57
2021/04/06 10:42:11;;;;;;;9.30;5.37;;;;;;;27.88;16.45;99694.85;1739425;81;25607;-57
2021/04/06 10:44:43;;;;;;;11.50;3.60;;;;;;;28.07;16.09;99691.81;1735322;82;25696;-57
2021/04/06 10:47:30;;;;;;;7.20;3.40;;;;;;;28.01;15.43;99690.15;1739479;82;25506;-57
2021/04/06 10:49:59;;;;;;;7.30;4.47;;;;;;;27.42;16.46;99690.14;1739200;82;27547;-57
2021/04/06 10:52:31;;;;;;;13.72;3.90;;;;;;;27.42;15.96;99688.77;1730659;82;25526;-57
2021/04/06 10:55:02;;;;;;;12.23;3.65;;;;;;;27.22;16.00;99684.88;1729148;82;25647;-57
2021/04/06 10:57:37;;;;;;;10.45;3.55;;;;;;;27.66;15.90;99684.91;1735193;82;26146;-57
2021/04/06 11:00:23;;;;;;;4.47;3.55;;;;;;;27.98;15.93;99674.11;1734591;82;25723;-57
2021/04/06 11:03:15;;;;;;;7.42;3.40;;;;;;;28.50;15.83;99666.53;1734121;82;27414;-57
2021/04/06 11:05:45;;;;;;;15.50;2.93;;;;;;;28.80;16.57;99661.97;1781411;79;26639;-57
2021/04/06 11:08:26;;;;;;;6.80;3.10;;;;;;;29.24;16.27;99659.47;1780736;78;25666;-57
2021/04/06 11:10:58;;;;;;;5.70;3.27;;;;;;;29.63;15.16;99665.56;1767847;78;26281;-57
2021/04/06 11:13:26;;;;;;;8.00;3.47;;;;;;;29.51;14.57;99654.30;1763541;79;25688;-57
2021/04/06 11:15:55;;;;;;;3.30;2.55;;;;;;;29.49;14.28;99655.70;1795197;78;27510;-57
2021/04/06 11:18:23;;;;;;;13.25;3.33;;;;;;;29.58;14.88;99644.27;1777581;78;25636;-57
2021/04/06 11:20:50;;;;;;;13.32;2.58;;;;;;;29.74;15.42;99639.95;1772684;78;25679;-57
2021/04/06 11:23:18;;;;;;;8.30;2.40;;;;;;;30.05;14.39;99633.56;1775682;79;26139;-57
2021/04/06 11:25:46;;;;;;;16.00;3.40;;;;;;;30.37;13.48;99622.38;1781990;79;25787;-58
2021/04/06 11:28:14;;;;;;;4.90;2.10;;;;;;;30.33;13.29;99624.66;1766524;79;28453;-57
2021/04/06 11:30:42;;;;;;;4.70;2.30;;;;;;;30.12;13.35;99623.51;1780865;78;26273;-57
2021/04/06 11:33:10;;;;;;;6.65;2.42;;;;;;;29.50;13.86;99619.39;1709621;82;25650;-57
2021/04/06 11:35:38;;;;;;;3.22;2.27;;;;;;;29.59;12.86;99614.06;1728020;82;25793;-57
2021/04/06 11:38:06;;;;;;;6.85;2.37;;;;;;;29.30;13.24;99612.64;1723496;82;25701;-57
2021/04/06 11:40:35;;;;;;;3.33;2.45;;;;;;;28.68;12.93;99601.98;1709469;83;27977;-57
2021/04/06 11:43:03;;;;;;;4.87;3.25;;;;;;;28.33;13.79;99592.19;1705542;84;25786;-57
2021/04/06 11:45:31;;;;;;;5.50;3.00;;;;;;;28.41;13.97;99588.02;1709561;81;25704;-57
2021/04/06 11:47:59;;;;;;;4.87;2.60;;;;;;;28.57;13.87;99591.50;1781705;79;25657;-57
2021/04/06 11:50:27;;;;;;;7.87;2.77;;;;;;;28.62;13.84;99585.95;1775969;79;25695;-57
2021/04/06 11:52:56;;;;;;;8.58;2.80;;;;;;;27.66;14.91;99578.55;1762225;80;27583;-57
2021/04/06 11:55:24;;;;;;;8.68;3.05;;;;;;;27.63;14.81;99574.98;1779499;78;26134;-57